createdAt,value
2022-12-18T00:01:17.305Z,13.17
2022-12-18T00:03:45.287Z,12.23
2022-12-18T00:06:15.947Z,12.80
2022-12-18T00:08:43.917Z,12.35
2022-12-18T00:11:16.353Z,12.13
2022-12-18T00:13:43.816Z,12.17
2022-12-18T00:16:12.838Z,12.18
2022-12-18T00:18:40.939Z,12.68
2022-12-18T00:21:09.915Z,13.63
2022-12-18T00:23:37.764Z,13.15
2022-12-18T00:26:08.164Z,12.93
2022-12-18T00:28:35.431Z,12.82
2022-12-18T00:31:03.084Z,12.70
2022-12-18T00:33:30.589Z,13.27
2022-12-18T00:36:04.190Z,12.88
2022-12-18T00:38:33.375Z,12.93
2022-12-18T00:41:00.748Z,11.73
2022-12-18T00:43:28.157Z,12.40
2022-12-18T00:45:55.531Z,12.60
2022-12-18T00:48:22.885Z,12.27
2022-12-18T00:50:50.497Z,12.27
2022-12-18T00:53:17.835Z,11.57
2022-12-18T00:55:45.160Z,12.27
2022-12-18T00:58:12.855Z,11.88
2022-12-18T01:00:40.159Z,11.90
2022-12-18T01:03:14.045Z,10.53
2022-12-18T01:05:42.686Z,11.52
2022-12-18T01:08:10.140Z,10.82
2022-12-18T01:10:37.480Z,11.75
2022-12-18T01:13:04.761Z,11.48
2022-12-18T01:15:32.286Z,10.37
2022-12-18T01:17:59.490Z,9.77
2022-12-18T01:20:27.898Z,11.48
2022-12-18T01:22:55.129Z,9.40
2022-12-18T01:25:22.520Z,9.95
2022-12-18T01:27:52.832Z,8.33
2022-12-18T01:30:20.062Z,9.18
2022-12-18T01:32:47.310Z,10.00
2022-12-18T01:35:14.637Z,9.55
2022-12-18T01:37:41.927Z,8.40
2022-12-18T01:40:09.611Z,8.67
2022-12-18T01:42:36.863Z,8.45
2022-12-18T01:45:22.989Z,8.73
2022-12-18T01:48:19.501Z,8.50
2022-12-18T01:50:47.105Z,7.90
2022-12-18T01:53:17.040Z,7.77
2022-12-18T01:55:47.662Z,7.97
2022-12-18T01:58:15.178Z,7.93
2022-12-18T02:00:42.498Z,8.77
2022-12-18T02:03:10.023Z,9.07
2022-12-18T02:05:46.016Z,8.03
2022-12-18T02:08:19.059Z,7.80
2022-12-18T02:10:49.740Z,7.57
2022-12-18T02:13:50.513Z,8.55
2022-12-18T02:16:40.583Z,7.72
2022-12-18T02:19:21.905Z,8.00
2022-12-18T02:22:09.437Z,8.48
2022-12-18T02:24:52.842Z,8.73
2022-12-18T02:27:20.066Z,9.93
2022-12-18T02:29:58.566Z,8.18
2022-12-18T02:32:31.157Z,7.57
2022-12-18T02:34:58.546Z,8.32
2022-12-18T02:37:27.918Z,9.05
2022-12-18T02:39:56.504Z,8.85
2022-12-18T02:42:23.942Z,9.18
2022-12-18T02:44:52.263Z,9.30
2022-12-18T02:47:25.543Z,8.20
2022-12-18T02:49:55.843Z,8.82
2022-12-18T02:52:29.876Z,10.38
2022-12-18T02:55:17.089Z,9.55
2022-12-18T02:58:08.612Z,9.00
2022-12-18T03:00:42.903Z,8.77
2022-12-18T03:03:17.647Z,8.18
2022-12-18T03:06:10.810Z,9.68
2022-12-18T03:08:40.420Z,8.55
2022-12-18T03:11:12.117Z,8.83
2022-12-18T03:13:58.310Z,11.10
2022-12-18T03:16:28.689Z,10.05
2022-12-18T03:18:58.386Z,8.68
2022-12-18T03:21:29.549Z,8.98
2022-12-18T03:23:56.964Z,9.23
2022-12-18T03:26:27.167Z,10.43
2022-12-18T03:29:03.424Z,10.77
2022-12-18T03:31:32.077Z,9.57
2022-12-18T03:34:00.756Z,10.20
2022-12-18T03:36:36.094Z,9.20
2022-12-18T03:39:03.605Z,9.27
2022-12-18T03:41:34.511Z,11.00
2022-12-18T03:44:30.252Z,10.10
2022-12-18T03:47:17.790Z,9.45
2022-12-18T03:50:18.933Z,10.70
2022-12-18T03:53:53.782Z,11.30
2022-12-18T03:56:25.083Z,10.15
2022-12-18T03:58:53.255Z,10.88
2022-12-18T04:01:27.273Z,10.05
2022-12-18T04:03:54.878Z,10.23
2022-12-18T04:06:22.497Z,10.75
2022-12-18T04:08:49.874Z,9.40
2022-12-18T04:11:21.466Z,10.10
2022-12-18T04:13:49.601Z,10.40
2022-12-18T04:16:23.153Z,9.17
2022-12-18T04:18:54.074Z,9.63
2022-12-18T04:21:23.794Z,9.80
2022-12-18T04:23:51.185Z,10.10
2022-12-18T04:26:21.410Z,10.18
2022-12-18T04:29:24.075Z,9.77
2022-12-18T04:31:51.664Z,9.52
2022-12-18T04:34:20.197Z,9.95
2022-12-18T04:36:53.139Z,10.00
2022-12-18T04:39:22.031Z,10.80
2022-12-18T04:41:52.213Z,9.33
2022-12-18T04:44:19.460Z,9.95
2022-12-18T04:46:46.791Z,10.05
2022-12-18T04:49:14.200Z,8.80
2022-12-18T04:51:41.393Z,9.45
2022-12-18T04:54:08.676Z,9.23
2022-12-18T04:56:35.887Z,9.50
2022-12-18T04:59:03.203Z,10.07
2022-12-18T05:01:34.622Z,10.05
2022-12-18T05:04:03.245Z,9.80
2022-12-18T05:06:30.499Z,11.17
2022-12-18T05:08:57.863Z,11.50
2022-12-18T05:11:25.150Z,10.30
2022-12-18T05:13:52.428Z,11.43
2022-12-18T05:16:19.703Z,12.05
2022-12-18T05:18:47.080Z,10.60
2022-12-18T05:21:14.348Z,10.68
2022-12-18T05:23:41.923Z,10.88
2022-12-18T05:26:09.470Z,10.75
2022-12-18T05:28:36.900Z,10.88
2022-12-18T05:31:04.659Z,11.03
2022-12-18T05:33:33.341Z,11.88
2022-12-18T05:36:01.778Z,14.15
2022-12-18T05:38:30.057Z,13.70
2022-12-18T05:40:57.399Z,11.70
2022-12-18T05:43:24.995Z,13.00
2022-12-18T05:45:53.864Z,12.80
2022-12-18T05:48:21.485Z,13.93
2022-12-18T05:50:49.552Z,12.23
2022-12-18T05:53:18.224Z,13.00
2022-12-18T05:55:45.630Z,12.87
2022-12-18T05:58:13.257Z,13.75
2022-12-18T06:00:42.157Z,13.57
2022-12-18T06:03:10.360Z,12.48
2022-12-18T06:05:42.120Z,13.75
2022-12-18T06:08:09.515Z,13.60
2022-12-18T06:10:36.928Z,16.45
2022-12-18T06:13:04.221Z,14.80
2022-12-18T06:15:31.454Z,16.58
2022-12-18T06:17:58.939Z,19.80
2022-12-18T06:20:31.823Z,17.00
2022-12-18T06:23:00.924Z,18.60
2022-12-18T06:25:28.196Z,16.45
2022-12-18T06:27:55.557Z,13.93
2022-12-18T06:30:22.909Z,12.40
2022-12-18T06:32:56.317Z,12.67
2022-12-18T06:35:24.773Z,12.13
2022-12-18T06:37:52.018Z,12.05
2022-12-18T06:40:19.745Z,12.80
2022-12-18T06:42:47.316Z,11.65
2022-12-18T06:45:17.523Z,10.23
2022-12-18T06:47:44.870Z,10.45
2022-12-18T06:50:12.420Z,9.25
2022-12-18T06:52:41.407Z,10.85
2022-12-18T06:55:09.407Z,11.43
2022-12-18T06:57:36.977Z,10.50
2022-12-18T07:00:05.799Z,10.82
2022-12-18T07:02:33.238Z,10.45
2022-12-18T07:05:01.426Z,10.05
2022-12-18T07:07:30.151Z,11.52
2022-12-18T07:09:57.371Z,10.23
2022-12-18T07:12:24.624Z,11.18
2022-12-18T07:14:51.831Z,10.82
2022-12-18T07:17:19.152Z,11.98
2022-12-18T07:19:46.465Z,11.00
2022-12-18T07:22:13.747Z,10.30
2022-12-18T07:24:41.081Z,11.48
2022-12-18T07:27:08.436Z,11.18
2022-12-18T07:29:36.678Z,10.15
2022-12-18T07:32:04.027Z,9.35
2022-12-18T07:34:31.319Z,9.33
2022-12-18T07:36:58.967Z,10.20
2022-12-18T07:39:26.172Z,9.88
2022-12-18T07:42:11.812Z,11.15
2022-12-18T07:44:40.838Z,10.07
2022-12-18T07:47:12.052Z,9.93
2022-12-18T07:49:39.701Z,9.93
2022-12-18T07:52:07.016Z,10.00
2022-12-18T07:54:34.313Z,10.93
2022-12-18T07:57:01.516Z,11.30
2022-12-18T07:59:28.809Z,11.23
2022-12-18T08:01:56.315Z,10.27
2022-12-18T08:04:23.675Z,10.75
2022-12-18T08:06:50.943Z,9.88
2022-12-18T08:09:18.373Z,10.25
2022-12-18T08:11:45.684Z,9.90
2022-12-18T08:14:13.080Z,9.80
2022-12-18T08:16:40.670Z,10.57
2022-12-18T08:19:08.202Z,10.65
2022-12-18T08:21:35.433Z,8.80
2022-12-18T08:24:02.863Z,10.13
2022-12-18T08:26:31.562Z,10.02
2022-12-18T08:28:59.877Z,9.18
2022-12-18T08:31:27.681Z,9.43
2022-12-18T08:33:55.064Z,9.65
2022-12-18T08:36:22.912Z,11.00
2022-12-18T08:38:50.623Z,12.55
2022-12-18T08:41:18.495Z,12.65
2022-12-18T08:44:04.226Z,11.38
2022-12-18T08:46:49.584Z,12.85
2022-12-18T08:49:16.864Z,14.10
2022-12-18T08:51:44.102Z,12.02
2022-12-18T08:54:15.022Z,12.90
2022-12-18T08:56:42.357Z,11.70
2022-12-18T08:59:12.136Z,10.80
2022-12-18T09:01:45.085Z,10.30
2022-12-18T09:04:12.461Z,11.00
2022-12-18T09:06:39.714Z,11.48
2022-12-18T09:09:07.271Z,11.70
2022-12-18T09:11:34.586Z,13.07
2022-12-18T09:14:02.202Z,13.67
2022-12-18T09:16:32.292Z,12.75
2022-12-18T09:19:00.839Z,11.70
2022-12-18T09:21:29.796Z,10.68
2022-12-18T09:23:57.346Z,11.32
2022-12-18T09:26:24.931Z,10.53
2022-12-18T09:28:52.296Z,10.25
2022-12-18T09:31:21.733Z,9.40
2022-12-18T09:33:49.110Z,9.63
2022-12-18T09:36:17.118Z,10.70
2022-12-18T09:38:44.471Z,9.87
2022-12-18T09:41:36.562Z,8.63
2022-12-18T09:44:14.768Z,9.07
2022-12-18T09:46:49.893Z,7.80
2022-12-18T09:49:18.685Z,8.25
2022-12-18T09:51:48.682Z,6.30
2022-12-18T09:54:19.937Z,8.23
2022-12-18T09:56:47.205Z,7.57
2022-12-18T09:59:30.359Z,8.20
2022-12-18T10:01:57.908Z,6.13
2022-12-18T10:04:25.625Z,6.47
2022-12-18T10:07:04.338Z,8.88
2022-12-18T10:09:46.966Z,8.18
2022-12-18T10:12:20.692Z,7.18
2022-12-18T10:15:15.438Z,6.43
2022-12-18T10:17:53.240Z,7.03
2022-12-18T10:20:43.647Z,9.20
2022-12-18T10:23:29.762Z,7.78
2022-12-18T10:25:57.097Z,10.02
2022-12-18T10:28:24.400Z,9.00
2022-12-18T10:30:51.839Z,9.23
2022-12-18T10:33:21.160Z,9.43
2022-12-18T10:35:49.489Z,7.93
2022-12-18T10:38:17.193Z,8.85
2022-12-18T10:40:56.359Z,6.70
2022-12-18T10:43:37.036Z,11.00
2022-12-18T10:46:10.511Z,7.32
2022-12-18T10:48:51.731Z,8.20
2022-12-18T10:51:22.060Z,9.68
2022-12-18T10:53:57.388Z,7.50
2022-12-18T10:56:25.579Z,9.17
2022-12-18T10:59:01.432Z,7.47
2022-12-18T11:01:29.639Z,7.95
2022-12-18T11:04:01.870Z,8.13
2022-12-18T11:06:29.921Z,8.73
2022-12-18T11:09:13.340Z,9.37
2022-12-18T11:11:42.537Z,8.20
2022-12-18T11:14:19.426Z,8.30
2022-12-18T11:17:24.849Z,7.47
2022-12-18T11:19:39.865Z,6.60
2022-12-18T11:22:32.236Z,7.63
2022-12-18T11:25:32.728Z,8.32
2022-12-18T11:28:20.685Z,11.48
2022-12-18T11:30:47.929Z,10.30
2022-12-18T11:33:20.494Z,11.10
2022-12-18T11:35:54.522Z,9.33
2022-12-18T11:38:26.448Z,10.30
2022-12-18T11:41:00.553Z,8.93
2022-12-18T11:43:42.633Z,7.90
2022-12-18T11:46:20.375Z,10.10
2022-12-18T11:49:23.815Z,7.27
2022-12-18T11:52:00.090Z,11.95
2022-12-18T11:54:27.472Z,10.75
2022-12-18T11:57:23.349Z,9.75
2022-12-18T12:00:16.063Z,8.25
2022-12-18T12:03:04.584Z,9.10
2022-12-18T12:05:34.848Z,8.43
2022-12-18T12:08:14.004Z,11.23
2022-12-18T12:11:09.358Z,9.55
2022-12-18T12:13:57.830Z,3.95
2022-12-18T12:16:56.142Z,6.27
2022-12-18T12:19:49.617Z,8.65
2022-12-18T12:22:26.013Z,10.73
2022-12-18T12:25:03.354Z,11.13
2022-12-18T12:27:40.927Z,9.00
2022-12-18T12:30:15.306Z,7.37
2022-12-18T12:32:51.807Z,8.82
2022-12-18T12:35:24.659Z,11.77
2022-12-18T12:38:10.509Z,9.25
2022-12-18T12:40:53.436Z,10.48
2022-12-18T12:43:28.298Z,9.40
2022-12-18T12:46:05.635Z,10.63
2022-12-18T12:48:47.713Z,12.20
2022-12-18T12:51:18.405Z,10.48
2022-12-18T12:53:46.389Z,11.68
2022-12-18T12:56:16.290Z,11.40
2022-12-18T12:58:58.860Z,12.27
2022-12-18T13:01:35.103Z,10.90
2022-12-18T13:04:30.461Z,7.40
2022-12-18T13:07:02.540Z,12.25
2022-12-18T13:09:34.417Z,11.37
2022-12-18T13:12:30.617Z,8.23
2022-12-18T13:15:21.775Z,12.77
2022-12-18T13:17:49.135Z,8.88
2022-12-18T13:20:17.046Z,6.90
2022-12-18T13:22:45.622Z,10.00
2022-12-18T13:25:37.654Z,9.68
2022-12-18T13:28:15.167Z,9.18
2022-12-18T13:30:42.372Z,10.85
2022-12-18T13:33:15.742Z,11.75
2022-12-18T13:35:54.766Z,10.03
2022-12-18T13:38:31.983Z,8.68
2022-12-18T13:41:00.473Z,9.07
2022-12-18T13:43:44.681Z,8.73
2022-12-18T13:46:27.348Z,8.75
2022-12-18T13:48:58.696Z,11.03
2022-12-18T13:51:26.464Z,11.93
2022-12-18T13:54:23.738Z,13.52
2022-12-18T13:56:51.243Z,12.63
2022-12-18T13:59:42.610Z,12.95
2022-12-18T14:02:13.253Z,17.37
2022-12-18T14:04:41.373Z,14.15
2022-12-18T14:07:11.892Z,12.93
2022-12-18T14:09:42.716Z,11.68
2022-12-18T14:12:36.227Z,11.38
2022-12-18T14:15:04.406Z,14.07
2022-12-18T14:17:32.643Z,12.50
2022-12-18T14:19:59.998Z,13.18
2022-12-18T14:22:30.485Z,11.27
2022-12-18T14:25:24.245Z,10.77
2022-12-18T14:28:07.645Z,10.03
2022-12-18T14:30:38.932Z,11.00
2022-12-18T14:33:09.288Z,10.18
2022-12-18T14:35:38.922Z,11.82
2022-12-18T14:38:14.948Z,11.90
2022-12-18T14:40:42.302Z,14.00
2022-12-18T14:43:13.513Z,12.32
2022-12-18T14:45:45.211Z,12.77
2022-12-18T14:48:12.944Z,17.33
2022-12-18T14:50:41.760Z,20.40
2022-12-18T14:53:30.180Z,15.17
2022-12-18T14:55:57.479Z,13.73
2022-12-18T14:58:24.873Z,10.25
2022-12-18T15:00:54.406Z,12.15
2022-12-18T15:03:22.881Z,12.02
2022-12-18T15:05:50.631Z,11.80
2022-12-18T15:08:32.616Z,11.75
2022-12-18T15:11:00.315Z,13.27
2022-12-18T15:13:28.890Z,12.98
2022-12-18T15:15:58.601Z,13.00
2022-12-18T15:18:34.153Z,12.20
2022-12-18T15:21:09.115Z,11.98
2022-12-18T15:23:46.449Z,11.60
2022-12-18T15:26:15.760Z,12.60
2022-12-18T15:28:49.497Z,13.65
2022-12-18T15:31:17.962Z,13.50
2022-12-18T15:34:06.485Z,12.82
2022-12-18T15:36:37.558Z,10.82
2022-12-18T15:39:06.584Z,16.00
2022-12-18T15:41:35.818Z,17.77
2022-12-18T15:44:04.347Z,14.20
2022-12-18T15:46:32.296Z,14.77
2022-12-18T15:49:02.516Z,13.35
2022-12-18T15:51:36.706Z,13.63
2022-12-18T15:54:05.754Z,12.73
2022-12-18T15:56:51.766Z,12.47
2022-12-18T15:59:19.898Z,14.25
2022-12-18T16:01:48.614Z,13.15
2022-12-18T16:04:17.511Z,13.60
2022-12-18T16:07:13.419Z,14.93
2022-12-18T16:09:32.084Z,15.00
2022-12-18T16:11:59.569Z,15.48
2022-12-18T16:14:28.003Z,13.88
2022-12-18T16:16:59.699Z,14.82
2022-12-18T16:19:27.371Z,15.65
2022-12-18T16:21:56.147Z,14.70
2022-12-18T16:24:25.228Z,15.25
2022-12-18T16:26:53.108Z,15.48
2022-12-18T16:29:25.687Z,14.45
2022-12-18T16:31:53.188Z,14.57
2022-12-18T16:34:28.629Z,14.37
2022-12-18T16:37:05.134Z,14.70
2022-12-18T16:39:35.961Z,14.65
2022-12-18T16:42:24.190Z,14.43
2022-12-18T16:44:51.534Z,13.07
2022-12-18T16:47:19.052Z,13.93
2022-12-18T16:49:46.552Z,13.60
2022-12-18T16:52:13.938Z,14.35
2022-12-18T16:54:41.213Z,17.02
2022-12-18T16:57:10.331Z,15.73
2022-12-18T16:59:37.626Z,11.20
2022-12-18T17:02:05.820Z,13.27
2022-12-18T17:04:33.838Z,13.20
2022-12-18T17:07:01.040Z,14.00
2022-12-18T17:09:28.574Z,14.27
2022-12-18T17:11:55.795Z,13.00
2022-12-18T17:14:24.619Z,14.60
2022-12-18T17:17:19.079Z,18.35
2022-12-18T17:19:40.025Z,22.55
2022-12-18T17:22:08.273Z,19.52
2022-12-18T17:24:35.967Z,19.77
2022-12-18T17:27:04.294Z,16.33
2022-12-18T17:29:31.665Z,16.58
2022-12-18T17:32:00.362Z,16.70
2022-12-18T17:34:28.338Z,12.38
2022-12-18T17:36:56.246Z,15.23
2022-12-18T17:39:23.603Z,16.63
2022-12-18T17:41:50.794Z,17.25
2022-12-18T17:44:18.257Z,16.85
2022-12-18T17:46:46.325Z,18.00
2022-12-18T17:49:14.272Z,17.70
2022-12-18T17:51:43.161Z,16.90
2022-12-18T17:54:10.840Z,16.98
2022-12-18T17:56:38.321Z,15.77
2022-12-18T17:59:07.061Z,16.70
2022-12-18T18:01:36.427Z,14.97
2022-12-18T18:04:07.425Z,14.73
2022-12-18T18:06:34.881Z,12.68
2022-12-18T18:09:04.567Z,13.75
2022-12-18T18:11:50.185Z,13.88
2022-12-18T18:14:20.003Z,14.23
2022-12-18T18:16:48.703Z,14.43
2022-12-18T18:19:21.115Z,14.40
2022-12-18T18:21:49.651Z,14.15
2022-12-18T18:24:18.346Z,16.75
2022-12-18T18:26:46.877Z,18.07
2022-12-18T18:29:21.838Z,19.85
2022-12-18T18:31:49.442Z,22.05
2022-12-18T18:34:19.463Z,18.92
2022-12-18T18:36:46.881Z,18.15
2022-12-18T18:39:14.142Z,15.20
2022-12-18T18:41:45.068Z,15.20
2022-12-18T18:44:16.495Z,14.23
2022-12-18T18:46:44.099Z,14.77
2022-12-18T18:49:11.951Z,15.25
2022-12-18T18:51:40.705Z,14.97
2022-12-18T18:54:08.000Z,15.38
2022-12-18T18:56:56.691Z,11.23
2022-12-18T18:59:29.693Z,8.93
2022-12-18T19:02:00.769Z,11.70
2022-12-18T19:04:41.680Z,13.27
2022-12-18T19:07:13.178Z,13.75
2022-12-18T19:09:42.283Z,13.30
2022-12-18T19:12:28.139Z,14.68
2022-12-18T19:14:55.501Z,10.50
2022-12-18T19:17:27.940Z,12.60
2022-12-18T19:19:57.205Z,14.23
2022-12-18T19:22:24.502Z,14.05
2022-12-18T19:24:51.848Z,16.50
2022-12-18T19:27:19.146Z,15.85
2022-12-18T19:29:46.495Z,15.77
2022-12-18T19:32:13.795Z,15.30
2022-12-18T19:34:41.142Z,14.02
2022-12-18T19:37:10.596Z,14.77
2022-12-18T19:39:37.926Z,16.23
2022-12-18T19:42:05.178Z,16.20
2022-12-18T19:44:32.436Z,15.52
2022-12-18T19:46:59.650Z,16.67
2022-12-18T19:49:27.085Z,16.95
2022-12-18T19:51:54.302Z,12.68
2022-12-18T19:54:21.637Z,14.87
2022-12-18T19:56:48.900Z,17.10
2022-12-18T19:59:16.301Z,14.38
2022-12-18T20:01:43.690Z,13.13
2022-12-18T20:04:11.180Z,13.77
2022-12-18T20:06:49.816Z,15.73
2022-12-18T20:09:17.364Z,15.68
2022-12-18T20:11:45.042Z,16.15
2022-12-18T20:14:13.017Z,14.70
2022-12-18T20:16:40.471Z,16.48
2022-12-18T20:19:08.177Z,13.23
2022-12-18T20:21:36.123Z,13.80
2022-12-18T20:24:03.557Z,14.55
2022-12-18T20:26:30.820Z,15.68
2022-12-18T20:28:58.209Z,14.98
2022-12-18T20:31:25.492Z,14.57
2022-12-18T20:33:54.530Z,13.52
2022-12-18T20:36:27.043Z,10.20
2022-12-18T20:38:58.234Z,13.40
2022-12-18T20:41:36.447Z,12.10
2022-12-18T20:44:21.761Z,13.63
2022-12-18T20:46:56.590Z,12.13
2022-12-18T20:49:24.707Z,13.88
2022-12-18T20:51:52.930Z,13.70
2022-12-18T20:54:21.255Z,14.48
2022-12-18T20:56:48.561Z,14.50
2022-12-18T20:59:16.020Z,14.18
2022-12-18T21:01:48.299Z,13.50
2022-12-18T21:04:18.623Z,14.35
2022-12-18T21:06:53.368Z,14.35
2022-12-18T21:09:27.932Z,13.00
2022-12-18T21:12:23.760Z,14.60
2022-12-18T21:14:51.144Z,12.10
2022-12-18T21:17:18.431Z,12.35
2022-12-18T21:19:45.702Z,12.70
2022-12-18T21:22:13.704Z,13.60
2022-12-18T21:24:41.340Z,13.32
2022-12-18T21:27:08.576Z,12.98
2022-12-18T21:29:38.127Z,14.02
2022-12-18T21:32:05.504Z,14.38
2022-12-18T21:34:33.000Z,13.63
2022-12-18T21:37:00.595Z,13.90
2022-12-18T21:39:28.428Z,13.05
2022-12-18T21:42:14.450Z,13.13
2022-12-18T21:44:42.574Z,15.52
2022-12-18T21:47:20.862Z,14.13
2022-12-18T21:49:53.851Z,15.07
2022-12-18T21:52:31.347Z,13.60
2022-12-18T21:55:08.954Z,14.23
2022-12-18T21:57:38.538Z,15.90
2022-12-18T22:00:06.973Z,14.60
2022-12-18T22:02:40.173Z,15.10
2022-12-18T22:05:08.007Z,18.58
2022-12-18T22:07:35.293Z,15.82
2022-12-18T22:10:02.623Z,17.80
2022-12-18T22:12:43.092Z,18.67
2022-12-18T22:15:15.534Z,20.52
2022-12-18T22:17:50.706Z,16.98
2022-12-18T22:20:20.205Z,17.52
2022-12-18T22:22:48.639Z,17.17
2022-12-18T22:25:16.011Z,13.97
2022-12-18T22:27:43.723Z,17.70
2022-12-18T22:30:14.534Z,16.50
2022-12-18T22:32:41.997Z,16.65
2022-12-18T22:35:15.418Z,17.40
2022-12-18T22:37:43.292Z,15.23
2022-12-18T22:40:23.985Z,15.90
2022-12-18T22:42:53.509Z,16.55
2022-12-18T22:45:20.775Z,15.77
2022-12-18T22:47:48.069Z,17.02
2022-12-18T22:50:15.337Z,17.90
2022-12-18T22:52:42.730Z,16.42
2022-12-18T22:55:09.962Z,17.38
2022-12-18T22:57:38.169Z,15.73
2022-12-18T23:00:08.773Z,14.68
2022-12-18T23:02:36.233Z,15.60
2022-12-18T23:05:04.089Z,12.13
2022-12-18T23:07:31.422Z,15.88
2022-12-18T23:10:01.227Z,15.05
2022-12-18T23:12:28.596Z,15.57
2022-12-18T23:14:56.074Z,14.60
2022-12-18T23:17:23.518Z,14.40
2022-12-18T23:19:51.266Z,16.50
2022-12-18T23:22:18.583Z,14.95
2022-12-18T23:24:46.321Z,16.38
2022-12-18T23:27:13.560Z,14.73
2022-12-18T23:29:40.913Z,16.20
2022-12-18T23:32:08.351Z,16.13
2022-12-18T23:34:35.674Z,14.93
2022-12-18T23:37:03.910Z,15.45
2022-12-18T23:39:31.474Z,15.67
2022-12-18T23:41:58.918Z,14.02
2022-12-18T23:44:26.318Z,15.60
2022-12-18T23:46:53.602Z,13.90
2022-12-18T23:49:20.988Z,15.07
2022-12-18T23:51:48.596Z,15.30
2022-12-18T23:54:15.934Z,14.93
2022-12-18T23:56:43.168Z,15.55
2022-12-18T23:59:10.516Z,13.82
